sensor_id;sensor_type;location;lat;lon;timestamp;pressure;altitude;pressure_sealevel;temperature;humidity
54592;BME280;40488;48.558;18.150;2023-02-12T15:16:11;101497.16;;;7.42;58.97
54592;BME280;40488;48.558;18.150;2023-02-12T15:18:54;101499.06;;;7.46;59.75
54592;BME280;40488;48.558;18.150;2023-02-12T15:21:26;101498.38;;;7.50;59.18
54592;BME280;40488;48.558;18.150;2023-02-12T15:24:04;101502.63;;;7.51;59.25
54592;BME280;40488;48.558;18.150;2023-02-12T15:26:38;101502.53;;;7.48;59.31
54592;BME280;40488;48.558;18.150;2023-02-12T15:29:17;101504.88;;;7.43;59.39
54592;BME280;40488;48.558;18.150;2023-02-12T15:31:53;101502.94;;;7.38;59.68
54592;BME280;40488;48.558;18.150;2023-02-12T15:34:25;101507.69;;;7.30;59.86
54592;BME280;40488;48.558;18.150;2023-02-12T15:36:57;101502.47;;;7.27;60.38
54592;BME280;40488;48.558;18.150;2023-02-12T15:39:34;101503.13;;;7.22;60.48
54592;BME280;40488;48.558;18.150;2023-02-12T15:42:24;101501.22;;;7.18;61.39
54592;BME280;40488;48.558;18.150;2023-02-12T15:45:02;101501.00;;;7.12;60.81
54592;BME280;40488;48.558;18.150;2023-02-12T15:47:35;101509.53;;;7.14;61.07
54592;BME280;40488;48.558;18.150;2023-02-12T15:50:05;101514.38;;;7.08;61.71
54592;BME280;40488;48.558;18.150;2023-02-12T15:52:37;101509.00;;;7.02;61.94
54592;BME280;40488;48.558;18.150;2023-02-12T15:55:15;101507.06;;;6.96;61.70
54592;BME280;40488;48.558;18.150;2023-02-12T15:57:49;101508.34;;;6.87;61.48
54592;BME280;40488;48.558;18.150;2023-02-12T16:00:27;101505.28;;;6.74;61.90
54592;BME280;40488;48.558;18.150;2023-02-12T16:02:58;101512.88;;;6.74;62.18
54592;BME280;40488;48.558;18.150;2023-02-12T16:05:27;101515.84;;;6.64;62.41
54592;BME280;40488;48.558;18.150;2023-02-12T16:07:57;101515.56;;;6.58;62.50
54592;BME280;40488;48.558;18.150;2023-02-12T16:10:26;101513.59;;;6.53;62.24
54592;BME280;40488;48.558;18.150;2023-02-12T16:12:55;101521.94;;;6.50;62.79
54592;BME280;40488;48.558;18.150;2023-02-12T16:15:27;101496.53;;;6.31;62.84
54592;BME280;40488;48.558;18.150;2023-02-12T16:17:59;101519.66;;;6.37;62.99
54592;BME280;40488;48.558;18.150;2023-02-12T16:20:31;101524.44;;;6.31;63.19
54592;BME280;40488;48.558;18.150;2023-02-12T16:23:04;101537.00;;;6.28;63.25
54592;BME280;40488;48.558;18.150;2023-02-12T16:25:35;101534.16;;;6.22;63.47
54592;BME280;40488;48.558;18.150;2023-02-12T16:28:13;101547.50;;;6.18;63.61
54592;BME280;40488;48.558;18.150;2023-02-12T16:30:44;101557.34;;;6.12;63.45
54592;BME280;40488;48.558;18.150;2023-02-12T16:33:33;101547.66;;;6.03;63.77
54592;BME280;40488;48.558;18.150;2023-02-12T16:36:04;101558.25;;;5.95;63.93
54592;BME280;40488;48.558;18.150;2023-02-12T16:38:39;101555.25;;;5.86;64.16
54592;BME280;40488;48.558;18.150;2023-02-12T16:41:21;101559.06;;;5.78;64.42
54592;BME280;40488;48.558;18.150;2023-02-12T16:46:53;101563.38;;;5.63;64.85
54592;BME280;40488;48.558;18.150;2023-02-12T16:49:25;101564.63;;;5.55;65.33
54592;BME280;40488;48.558;18.150;2023-02-12T16:52:19;101558.56;;;5.51;65.28
54592;BME280;40488;48.558;18.150;2023-02-12T16:54:49;101556.75;;;5.49;65.65
54592;BME280;40488;48.558;18.150;2023-02-12T16:57:18;101553.91;;;5.42;65.88
54592;BME280;40488;48.558;18.150;2023-02-12T16:59:47;101555.31;;;5.37;66.05
54592;BME280;40488;48.558;18.150;2023-02-12T17:02:16;101551.84;;;5.35;66.10
54592;BME280;40488;48.558;18.150;2023-02-12T17:04:46;101557.09;;;5.38;66.61
54592;BME280;40488;48.558;18.150;2023-02-12T17:07:20;101560.66;;;5.42;66.25
54592;BME280;40488;48.558;18.150;2023-02-12T17:09:50;101569.09;;;5.42;66.54
54592;BME280;40488;48.558;18.150;2023-02-12T17:12:18;101559.84;;;5.43;66.56
54592;BME280;40488;48.558;18.150;2023-02-12T17:14:49;101563.41;;;5.47;66.40
54592;BME280;40488;48.558;18.150;2023-02-12T17:17:17;101573.66;;;5.50;66.19
54592;BME280;40488;48.558;18.150;2023-02-12T17:19:48;101580.41;;;5.49;66.40
54592;BME280;40488;48.558;18.150;2023-02-12T17:22:19;101575.03;;;5.43;66.60
54592;BME280;40488;48.558;18.150;2023-02-12T17:24:50;101582.56;;;5.41;66.52
54592;BME280;40488;48.558;18.150;2023-02-12T17:27:21;101586.53;;;5.36;66.76
54592;BME280;40488;48.558;18.150;2023-02-12T17:29:50;101588.88;;;5.33;67.03
54592;BME280;40488;48.558;18.150;2023-02-12T17:32:18;101595.38;;;5.28;67.12
54592;BME280;40488;48.558;18.150;2023-02-12T17:34:50;101588.44;;;5.24;67.36
54592;BME280;40488;48.558;18.150;2023-02-12T17:37:19;101594.91;;;5.19;67.03
54592;BME280;40488;48.558;18.150;2023-02-12T17:39:50;101592.00;;;5.12;67.40
54592;BME280;40488;48.558;18.150;2023-02-12T17:42:20;101592.69;;;5.09;67.61
54592;BME280;40488;48.558;18.150;2023-02-12T17:44:49;101592.53;;;5.06;67.62
54592;BME280;40488;48.558;18.150;2023-02-12T17:47:18;101594.13;;;5.04;67.86
54592;BME280;40488;48.558;18.150;2023-02-12T17:49:47;101604.09;;;5.01;68.00
54592;BME280;40488;48.558;18.150;2023-02-12T17:52:17;101601.22;;;4.95;68.17
54592;BME280;40488;48.558;18.150;2023-02-12T17:54:46;101594.34;;;4.93;68.40
54592;BME280;40488;48.558;18.150;2023-02-12T17:57:14;101596.41;;;4.84;67.92
54592;BME280;40488;48.558;18.150;2023-02-12T17:59:45;101594.09;;;4.72;68.29
54592;BME280;40488;48.558;18.150;2023-02-12T18:02:13;101585.22;;;4.64;68.60
54592;BME280;40488;48.558;18.150;2023-02-12T18:04:42;101583.34;;;4.60;68.95
54592;BME280;40488;48.558;18.150;2023-02-12T18:07:11;101578.09;;;4.57;68.88
54592;BME280;40488;48.558;18.150;2023-02-12T18:09:41;101589.78;;;4.55;68.89
54592;BME280;40488;48.558;18.150;2023-02-12T18:12:10;101598.00;;;4.51;69.24
54592;BME280;40488;48.558;18.150;2023-02-12T18:14:39;101598.72;;;4.48;69.46
54592;BME280;40488;48.558;18.150;2023-02-12T18:17:08;101602.00;;;4.47;69.07
54592;BME280;40488;48.558;18.150;2023-02-12T18:19:37;101606.06;;;4.44;69.77
54592;BME280;40488;48.558;18.150;2023-02-12T18:22:06;101602.22;;;4.36;69.75
54592;BME280;40488;48.558;18.150;2023-02-12T18:24:35;101607.09;;;4.33;69.56
54592;BME280;40488;48.558;18.150;2023-02-12T18:27:05;101604.56;;;4.33;69.55
54592;BME280;40488;48.558;18.150;2023-02-12T18:29:34;101606.22;;;4.32;69.58
54592;BME280;40488;48.558;18.150;2023-02-12T18:32:03;101604.31;;;4.28;70.48
54592;BME280;40488;48.558;18.150;2023-02-12T18:34:33;101611.66;;;4.24;69.94
54592;BME280;40488;48.558;18.150;2023-02-12T18:37:01;101606.44;;;4.21;69.83
54592;BME280;40488;48.558;18.150;2023-02-12T18:39:30;101603.66;;;4.16;70.15
54592;BME280;40488;48.558;18.150;2023-02-12T18:41:59;101602.78;;;4.16;70.04
54592;BME280;40488;48.558;18.150;2023-02-12T18:44:29;101599.81;;;4.08;70.37
54592;BME280;40488;48.558;18.150;2023-02-12T18:46:58;101602.25;;;4.06;70.43
54592;BME280;40488;48.558;18.150;2023-02-12T18:49:27;101602.97;;;4.04;71.25
54592;BME280;40488;48.558;18.150;2023-02-12T18:51:56;101608.72;;;4.01;71.25
54592;BME280;40488;48.558;18.150;2023-02-12T18:54:25;101607.75;;;3.99;71.56
54592;BME280;40488;48.558;18.150;2023-02-12T18:56:54;101607.69;;;3.98;71.62
54592;BME280;40488;48.558;18.150;2023-02-12T18:59:23;101594.94;;;3.96;71.48
54592;BME280;40488;48.558;18.150;2023-02-12T19:01:55;101609.22;;;3.96;71.52
54592;BME280;40488;48.558;18.150;2023-02-12T19:04:24;101616.72;;;3.94;71.24
54592;BME280;40488;48.558;18.150;2023-02-12T19:06:54;101624.94;;;3.90;71.15
54592;BME280;40488;48.558;18.150;2023-02-12T19:09:24;101614.81;;;3.76;71.16
54592;BME280;40488;48.558;18.150;2023-02-12T19:11:55;101632.06;;;3.68;71.76
54592;BME280;40488;48.558;18.150;2023-02-12T19:14:26;101624.28;;;3.65;71.82
54592;BME280;40488;48.558;18.150;2023-02-12T19:16:56;101616.63;;;3.49;72.30
54592;BME280;40488;48.558;18.150;2023-02-12T19:19:25;101620.34;;;3.41;72.30
54592;BME280;40488;48.558;18.150;2023-02-12T19:21:54;101630.78;;;3.32;72.41
54592;BME280;40488;48.558;18.150;2023-02-12T19:24:24;101632.16;;;3.27;71.76
54592;BME280;40488;48.558;18.150;2023-02-12T19:27:11;101634.63;;;3.13;72.18
54592;BME280;40488;48.558;18.150;2023-02-12T19:29:40;101633.69;;;2.98;72.43
54592;BME280;40488;48.558;18.150;2023-02-12T19:32:11;101631.56;;;2.91;71.85
54592;BME280;40488;48.558;18.150;2023-02-12T19:34:40;101637.28;;;2.88;72.36
54592;BME280;40488;48.558;18.150;2023-02-12T19:37:08;101632.78;;;2.83;72.88
54592;BME280;40488;48.558;18.150;2023-02-12T19:39:39;101632.66;;;2.81;73.15
54592;BME280;40488;48.558;18.150;2023-02-12T19:42:08;101618.91;;;2.76;73.36
54592;BME280;40488;48.558;18.150;2023-02-12T19:44:41;101628.53;;;2.68;73.01
54592;BME280;40488;48.558;18.150;2023-02-12T19:47:12;101637.53;;;2.65;73.06
54592;BME280;40488;48.558;18.150;2023-02-12T19:49:41;101635.91;;;2.52;74.00
54592;BME280;40488;48.558;18.150;2023-02-12T19:52:10;101642.22;;;2.46;74.18
54592;BME280;40488;48.558;18.150;2023-02-12T19:54:39;101639.97;;;2.50;74.21
54592;BME280;40488;48.558;18.150;2023-02-12T19:57:08;101632.03;;;2.57;74.54
54592;BME280;40488;48.558;18.150;2023-02-12T19:59:40;101633.22;;;2.49;75.27
54592;BME280;40488;48.558;18.150;2023-02-12T20:02:09;101631.44;;;2.48;75.63
54592;BME280;40488;48.558;18.150;2023-02-12T20:04:39;101642.13;;;2.44;74.81
54592;BME280;40488;48.558;18.150;2023-02-12T20:07:08;101643.78;;;2.44;75.69
54592;BME280;40488;48.558;18.150;2023-02-12T20:09:37;101646.00;;;2.39;75.28
54592;BME280;40488;48.558;18.150;2023-02-12T20:12:06;101647.34;;;2.34;75.21
54592;BME280;40488;48.558;18.150;2023-02-12T20:14:35;101647.16;;;2.31;75.00
54592;BME280;40488;48.558;18.150;2023-02-12T20:17:04;101643.47;;;2.26;75.67
54592;BME280;40488;48.558;18.150;2023-02-12T20:19:33;101640.38;;;2.17;75.77
54592;BME280;40488;48.558;18.150;2023-02-12T20:22:03;101641.91;;;2.15;75.10
54592;BME280;40488;48.558;18.150;2023-02-12T20:24:33;101647.53;;;2.11;75.61
54592;BME280;40488;48.558;18.150;2023-02-12T20:27:02;101645.00;;;1.98;74.80
54592;BME280;40488;48.558;18.150;2023-02-12T20:29:31;101649.81;;;1.95;75.50
54592;BME280;40488;48.558;18.150;2023-02-12T20:32:00;101647.47;;;1.85;74.95
54592;BME280;40488;48.558;18.150;2023-02-12T20:34:29;101648.50;;;1.75;75.29
54592;BME280;40488;48.558;18.150;2023-02-12T20:37:16;101645.16;;;1.75;75.96
54592;BME280;40488;48.558;18.150;2023-02-12T20:39:45;101648.44;;;1.74;76.16
54592;BME280;40488;48.558;18.150;2023-02-12T20:42:14;101651.31;;;1.67;75.72
54592;BME280;40488;48.558;18.150;2023-02-12T20:44:43;101645.88;;;1.61;75.84
54592;BME280;40488;48.558;18.150;2023-02-12T20:47:12;101649.75;;;1.56;75.70
54592;BME280;40488;48.558;18.150;2023-02-12T20:49:40;101651.63;;;1.47;76.02
54592;BME280;40488;48.558;18.150;2023-02-12T20:52:10;101656.16;;;1.39;76.01
54592;BME280;40488;48.558;18.150;2023-02-12T20:54:40;101650.13;;;1.37;76.64
54592;BME280;40488;48.558;18.150;2023-02-12T20:57:09;101655.81;;;1.34;76.82
54592;BME280;40488;48.558;18.150;2023-02-12T20:59:38;101656.16;;;1.39;76.56
54592;BME280;40488;48.558;18.150;2023-02-12T21:02:07;101653.00;;;1.30;76.45
54592;BME280;40488;48.558;18.150;2023-02-12T21:04:37;101648.63;;;1.27;77.09
54592;BME280;40488;48.558;18.150;2023-02-12T21:07:06;101654.47;;;1.26;77.09
54592;BME280;40488;48.558;18.150;2023-02-12T21:09:35;101653.47;;;1.24;76.77
54592;BME280;40488;48.558;18.150;2023-02-12T21:12:05;101652.66;;;1.12;76.58
54592;BME280;40488;48.558;18.150;2023-02-12T21:14:34;101662.03;;;1.03;77.08
54592;BME280;40488;48.558;18.150;2023-02-12T21:17:03;101662.03;;;1.03;77.14
54592;BME280;40488;48.558;18.150;2023-02-12T21:19:32;101663.25;;;1.08;77.56
54592;BME280;40488;48.558;18.150;2023-02-12T21:22:03;101664.69;;;1.05;77.40
54592;BME280;40488;48.558;18.150;2023-02-12T21:24:32;101669.06;;;1.07;77.46
54592;BME280;40488;48.558;18.150;2023-02-12T21:27:01;101666.75;;;1.10;78.49
54592;BME280;40488;48.558;18.150;2023-02-12T21:29:31;101670.13;;;1.11;77.88
54592;BME280;40488;48.558;18.150;2023-02-12T21:32:00;101669.28;;;1.10;78.29
54592;BME280;40488;48.558;18.150;2023-02-12T21:34:29;101663.81;;;1.04;77.92
54592;BME280;40488;48.558;18.150;2023-02-12T21:36:58;101671.59;;;0.96;78.30
54592;BME280;40488;48.558;18.150;2023-02-12T21:39:27;101681.84;;;0.99;77.67
54592;BME280;40488;48.558;18.150;2023-02-12T21:41:57;101673.47;;;0.98;78.50
54592;BME280;40488;48.558;18.150;2023-02-12T21:44:31;101674.00;;;0.94;78.48
54592;BME280;40488;48.558;18.150;2023-02-12T21:47:01;101672.25;;;0.93;77.86
54592;BME280;40488;48.558;18.150;2023-02-12T21:49:30;101670.28;;;0.89;78.33
54592;BME280;40488;48.558;18.150;2023-02-12T21:52:01;101670.84;;;0.85;78.67
54592;BME280;40488;48.558;18.150;2023-02-12T21:54:31;101668.09;;;0.82;78.23
54592;BME280;40488;48.558;18.150;2023-02-12T21:56:59;101660.16;;;0.76;78.56
54592;BME280;40488;48.558;18.150;2023-02-12T21:59:28;101671.94;;;0.77;78.47
54592;BME280;40488;48.558;18.150;2023-02-12T22:02:00;101677.75;;;0.76;78.47
54592;BME280;40488;48.558;18.150;2023-02-12T22:04:29;101683.22;;;0.71;77.95
54592;BME280;40488;48.558;18.150;2023-02-12T22:06:57;101685.50;;;0.56;78.13
54592;BME280;40488;48.558;18.150;2023-02-12T22:09:30;101681.59;;;0.48;78.45
54592;BME280;40488;48.558;18.150;2023-02-12T22:11:59;101681.03;;;0.52;78.60
54592;BME280;40488;48.558;18.150;2023-02-12T22:14:28;101688.13;;;0.46;78.23
54592;BME280;40488;48.558;18.150;2023-02-12T22:16:57;101701.47;;;0.45;78.41
54592;BME280;40488;48.558;18.150;2023-02-12T22:19:27;101701.00;;;0.39;78.94
54592;BME280;40488;48.558;18.150;2023-02-12T22:21:56;101701.25;;;0.42;79.16
54592;BME280;40488;48.558;18.150;2023-02-12T22:24:25;101701.47;;;0.45;78.92
54592;BME280;40488;48.558;18.150;2023-02-12T22:26:54;101699.47;;;0.41;79.44
54592;BME280;40488;48.558;18.150;2023-02-12T22:29:22;101701.25;;;0.42;79.42
54592;BME280;40488;48.558;18.150;2023-02-12T22:31:52;101711.50;;;0.45;78.98
54592;BME280;40488;48.558;18.150;2023-02-12T22:34:21;101711.28;;;0.30;78.96
54592;BME280;40488;48.558;18.150;2023-02-12T22:36:51;101710.63;;;0.21;79.18
54592;BME280;40488;48.558;18.150;2023-02-12T22:39:20;101716.50;;;0.22;79.25
54592;BME280;40488;48.558;18.150;2023-02-12T22:41:48;101716.06;;;0.16;79.30
54592;BME280;40488;48.558;18.150;2023-02-12T22:44:17;101722.59;;;0.14;79.23
54592;BME280;40488;48.558;18.150;2023-02-12T22:46:48;101707.06;;;0.08;79.37
54592;BME280;40488;48.558;18.150;2023-02-12T22:49:17;101712.75;;;0.05;79.36
54592;BME280;40488;48.558;18.150;2023-02-12T22:51:46;101717.66;;;0.04;79.40
54592;BME280;40488;48.558;18.150;2023-02-12T22:54:17;101713.41;;;0.03;79.20
54592;BME280;40488;48.558;18.150;2023-02-12T22:56:49;101717.50;;;-0.10;79.16
54592;BME280;40488;48.558;18.150;2023-02-12T22:59:18;101712.28;;;-0.13;79.34
54592;BME280;40488;48.558;18.150;2023-02-12T23:01:47;101717.75;;;-0.07;79.74
54592;BME280;40488;48.558;18.150;2023-02-12T23:04:17;101709.22;;;-0.09;79.49
54592;BME280;40488;48.558;18.150;2023-02-12T23:06:46;101718.84;;;-0.15;79.55
54592;BME280;40488;48.558;18.150;2023-02-12T23:09:17;101714.47;;;-0.17;79.49
54592;BME280;40488;48.558;18.150;2023-02-12T23:11:46;101704.22;;;-0.09;79.74
54592;BME280;40488;48.558;18.150;2023-02-12T23:14:16;101702.91;;;-0.04;79.88
54592;BME280;40488;48.558;18.150;2023-02-12T23:16:45;101702.91;;;-0.04;79.95
54592;BME280;40488;48.558;18.150;2023-02-12T23:19:14;101705.75;;;0.01;80.06
54592;BME280;40488;48.558;18.150;2023-02-12T23:21:43;101696.59;;;0.02;80.00
54592;BME280;40488;48.558;18.150;2023-02-12T23:24:12;101703.16;;;-0.01;80.31
54592;BME280;40488;48.558;18.150;2023-02-12T23:26:43;101695.94;;;-0.08;80.18
54592;BME280;40488;48.558;18.150;2023-02-12T23:29:12;101691.66;;;-0.09;80.32
54592;BME280;40488;48.558;18.150;2023-02-12T23:31:41;101679.66;;;-0.13;80.05
54592;BME280;40488;48.558;18.150;2023-02-12T23:34:10;101684.13;;;-0.09;80.41
54592;BME280;40488;48.558;18.150;2023-02-12T23:36:39;101683.25;;;-0.09;80.80
54592;BME280;40488;48.558;18.150;2023-02-12T23:39:10;101685.34;;;-0.04;81.11
54592;BME280;40488;48.558;18.150;2023-02-12T23:41:39;101681.72;;;-0.07;80.76
54592;BME280;40488;48.558;18.150;2023-02-12T23:44:10;101686.97;;;-0.16;80.95
54592;BME280;40488;48.558;18.150;2023-02-12T23:46:39;101688.72;;;-0.15;80.92
54592;BME280;40488;48.558;18.150;2023-02-12T23:49:08;101690.44;;;-0.14;80.58
54592;BME280;40488;48.558;18.150;2023-02-12T23:51:37;101687.19;;;-0.13;80.88
54592;BME280;40488;48.558;18.150;2023-02-12T23:54:06;101689.41;;;-0.06;81.08
54592;BME280;40488;48.558;18.150;2023-02-12T23:56:34;101680.66;;;-0.11;80.82
54592;BME280;40488;48.558;18.150;2023-02-12T23:59:04;101689.16;;;-0.09;80.95
